Time;durP1;ratioP1;P1;durP2;ratioP2;P2;SDS_P1;SDS_P2;PMS_P1;PMS_P2;Temp;Humidity;BMP_temperature;BMP_pressure;BME280_temperature;BME280_humidity;BME280_pressure;Samples;Min_cycle;Max_cycle;Signal;HPM_P1;HPM_P2
2023/03/05 11:53:13;;;;;;;;;;;16.20;47.10;;;;;;669236;27;1297773;-74
2023/03/05 11:53:35;;;;;;;;;;;16.30;51.10;;;;;;713659;27;846;-66
2023/03/05 11:54:00;;;;;;;;;;;16.30;48.10;;;;;;713619;27;799;-67
2023/03/05 11:54:25;;;;;;;;;;;16.40;46.90;;;;;;713638;27;838;-67
2023/03/05 11:54:49;;;;;;;;;;;16.40;46.50;;;;;;713614;27;819;-67
2023/03/05 11:55:13;;;;;;;;;;;16.40;46.00;;;;;;713616;27;838;-67
2023/03/05 11:55:44;;;;;;;;;;;16.50;45.80;;;;;;713407;27;1317;-68
2023/03/05 11:56:13;;;;;;;;;;;16.50;45.50;;;;;;713568;27;938;-68
2023/03/05 11:56:35;;;;;;;;;;;16.50;45.20;;;;;;713613;27;1100;-68
2023/03/05 11:56:56;;;;;;;;;;;16.60;45.50;;;;;;713235;27;815;-68
2023/03/05 11:57:17;;;;;;;;;;;16.70;45.40;;;;;;713643;27;910;-68
2023/03/05 11:57:47;;;;;;;;;;;16.80;45.40;;;;;;710294;27;914;-69
2023/03/05 11:58:11;;;;;;;;;;;16.80;45.20;;;;;;710539;27;968;-70
2023/03/05 11:58:31;;;;;;;;;;;16.90;44.90;;;;;;710562;27;847;-67
2023/03/05 11:59:00;;;;;;;;;;;17.00;45.10;;;;;;709688;27;784;-68
2023/03/05 11:59:24;;;;;;;;;;;17.00;44.70;;;;;;710568;27;830;-67
2023/03/05 11:59:50;;;;;;;;;;;17.10;44.40;;;;;;713423;27;806;-66
2023/03/05 12:00:15;;;;;;;;;;;17.10;44.10;;;;;;713577;27;900;-66
2023/03/05 12:00:36;;;;;;;;;;;17.20;44.30;;;;;;704679;28;924;-68
2023/03/05 12:00:57;;;;;;;;;;;17.20;44.80;;;;;;704324;28;1025;-69
2023/03/05 12:01:22;;;;;;;;;;;17.30;44.60;;;;;;704398;28;870;-67
2023/03/05 12:01:47;;;;;;;;;;;17.30;44.20;;;;;;704700;28;895;-67
2023/03/05 12:02:16;;;;;;;;;;;17.40;43.90;;;;;;704730;28;1179;-68
2023/03/05 12:02:36;;;;;;;;;;;17.40;43.60;;;;;;704137;28;887;-68
2023/03/05 12:02:58;;;;;;;;;;;17.50;43.50;;;;;;704476;28;1221;-67
2023/03/05 12:03:21;;;;;;;;;;;17.50;43.40;;;;;;704778;28;792;-66
2023/03/05 12:03:42;;;;;;;;;;;17.50;43.40;;;;;;704568;28;721;-71
2023/03/05 12:04:03;;;;;;;;;;;17.50;43.40;;;;;;704731;28;965;-71
2023/03/05 12:04:23;;;;;;;;;;;17.50;43.20;;;;;;704738;28;788;-71
2023/03/05 12:04:45;;;;;;;;;;;17.60;43.10;;;;;;704744;28;804;-70
2023/03/05 12:05:06;;;;;;;;;;;17.60;43.00;;;;;;704730;28;891;-72
2023/03/05 12:05:27;;;;;;;;;;;17.60;43.00;;;;;;704673;28;934;-70
2023/03/05 12:05:51;;;;;;;;;;;17.70;42.90;;;;;;704757;28;965;-69
2023/03/05 12:06:12;;;;;;;;;;;17.70;43.20;;;;;;701858;28;1043;-69
2023/03/05 12:06:39;;;;;;;;;;;17.70;43.80;;;;;;702058;28;839;-68
2023/03/05 12:07:01;;;;;;;;;;;17.70;43.30;;;;;;701670;28;1262;-68
2023/03/05 12:07:31;;;;;;;;;;;17.70;43.30;;;;;;701760;28;866;-68
2023/03/05 12:07:54;;;;;;;;;;;17.70;43.20;;;;;;702003;28;531;-71
2023/03/05 12:08:20;;;;;;;;;;;17.70;42.80;;;;;;704780;28;831;-71
2023/03/05 12:08:43;;;;;;;;;;;17.80;43.00;;;;;;704867;28;812;-70
2023/03/05 12:09:11;;;;;;;;;;;17.70;42.70;;;;;;704522;28;791;-70
2023/03/05 12:09:39;;;;;;;;;;;17.80;42.60;;;;;;704847;28;903;-71
2023/03/05 12:10:00;;;;;;;;;;;17.80;42.70;;;;;;704589;28;840;-71
2023/03/05 12:10:22;;;;;;;;;;;17.80;42.50;;;;;;703937;28;902;-72
2023/03/05 12:10:43;;;;;;;;;;;17.80;42.40;;;;;;701230;28;933;-70
2023/03/05 12:11:11;;;;;;;;;;;17.90;42.50;;;;;;701770;28;1018;-70
2023/03/05 12:11:32;;;;;;;;;;;17.90;42.80;;;;;;702053;28;784;-66
2023/03/05 12:11:57;;;;;;;;;;;17.90;42.70;;;;;;702067;28;1030;-65
2023/03/05 12:12:27;;;;;;;;;;;17.90;42.50;;;;;;702016;28;872;-66
2023/03/05 12:13:00;;;;;;;;;;;17.90;42.60;;;;;;704889;28;1246;-66
2023/03/05 12:13:23;;;;;;;;;;;17.90;42.50;;;;;;701985;28;890;-67
2023/03/05 12:13:49;;;;;;;;;;;18.00;42.60;;;;;;702043;28;966;-66
2023/03/05 12:14:20;;;;;;;;;;;17.90;42.50;;;;;;702125;28;918;-67
2023/03/05 12:14:44;;;;;;;;;;;18.00;42.60;;;;;;701471;28;1623;-66
2023/03/05 12:15:10;;;;;;;;;;;18.00;42.90;;;;;;699716;28;879;-66
2023/03/05 12:15:36;;;;;;;;;;;18.00;42.80;;;;;;702005;28;1053;-66
2023/03/05 12:16:18;;;;;;;;;;;18.00;42.60;;;;;;702074;28;784;-66
2023/03/05 12:16:57;;;;;;;;;;;18.00;42.70;;;;;;701898;28;1545;-67
2023/03/05 12:17:26;;;;;;;;;;;18.00;42.60;;;;;;701993;28;915;-66
2023/03/05 12:18:05;;;;;;;;;;;18.10;42.60;;;;;;701985;28;879;-66
2023/03/05 12:18:39;;;;;;;;;;;18.00;42.60;;;;;;702582;28;1218;-66
2023/03/05 12:19:17;;;;;;;;;;;18.10;42.50;;;;;;701678;28;1340;-66
2023/03/05 12:19:51;;;;;;;;;;;18.10;42.50;;;;;;701326;28;1321;-66
2023/03/05 12:20:16;;;;;;;;;;;18.10;42.30;;;;;;700537;28;1238;-66
2023/03/05 12:20:42;;;;;;;;;;;18.10;42.50;;;;;;699598;28;1228;-66
2023/03/05 12:21:06;;;;;;;;;;;18.10;42.50;;;;;;704559;28;1324;-67
2023/03/05 12:21:31;;;;;;;;;;;18.10;42.40;;;;;;703832;28;1292;-67
2023/03/05 12:21:53;;;;;;;;;;;18.10;42.40;;;;;;700453;28;1330;-66
2023/03/05 12:22:19;;;;;;;;;;;18.10;42.40;;;;;;699816;28;1301;-66
2023/03/05 12:22:39;;;;;;;;;;;18.10;42.30;;;;;;701584;28;1300;-66
2023/03/05 12:23:00;;;;;;;;;;;18.10;42.40;;;;;;699087;28;1420;-66
2023/03/05 12:23:21;;;;;;;;;;;18.10;42.40;;;;;;701740;28;1228;-66
2023/03/05 12:24:03;;;;;;;;;;;18.10;42.40;;;;;;698953;28;1174;-66
2023/03/05 12:24:24;;;;;;;;;;;18.10;42.40;;;;;;698847;28;1321;-66
2023/03/05 12:24:44;;;;;;;;;;;18.10;42.40;;;;;;699002;28;1489;-66
2023/03/05 12:25:23;;;;;;;;;;;18.10;42.50;;;;;;699017;28;1233;-66
2023/03/05 12:25:45;;;;;;;;;;;18.10;42.50;;;;;;696621;28;1293;-66
2023/03/05 12:26:05;;;;;;;;;;;18.10;42.50;;;;;;698881;28;1340;-66
2023/03/05 12:26:44;;;;;;;;;;;18.10;42.60;;;;;;696205;28;1333;-67
2023/03/05 12:27:08;;;;;;;;;;;18.10;42.60;;;;;;693947;28;1246;-66
2023/03/05 12:27:33;;;;;;;;;;;18.10;42.60;;;;;;696251;28;1303;-66
2023/03/05 12:27:53;;;;;;;;;;;18.10;42.60;;;;;;697129;28;1337;-66
2023/03/05 12:28:15;;;;;;;;;;;18.00;42.50;;;;;;698949;28;1245;-66
2023/03/05 12:28:42;;;;;;;;;;;18.00;42.50;;;;;;698975;28;1256;-66
2023/03/05 12:29:02;;;;;;;;;;;18.00;42.60;;;;;;696403;28;1234;-66
2023/03/05 12:29:26;;;;;;;;;;;18.00;42.60;;;;;;698618;28;1404;-66
2023/03/05 12:29:53;;;;;;;;;;;18.10;42.70;;;;;;698949;28;1210;-65
2023/03/05 12:30:49;;;;;;;;;;;18.00;43.80;;;;;;698970;28;1229;-66
2023/03/05 12:31:25;;;;;;;;;;;18.00;42.70;;;;;;689623;28;1469;-66
2023/03/05 12:31:45;;;;;;;;;;;18.10;42.70;;;;;;686270;28;1392;-66
2023/03/05 12:32:21;;;;;;;;;;;18.00;42.80;;;;;;690097;28;1251;-66
2023/03/05 12:32:41;;;;;;;;;;;18.00;42.80;;;;;;688657;28;1247;-66
2023/03/05 12:33:03;;;;;;;;;;;18.10;42.80;;;;;;693179;28;1965;-66
2023/03/05 12:33:37;;;;;;;;;;;18.00;42.80;;;;;;691128;28;1243;-66
2023/03/05 12:33:57;;;;;;;;;;;18.10;42.90;;;;;;697803;28;1313;-66
2023/03/05 12:34:33;;;;;;;;;;;18.10;42.90;;;;;;701684;28;1279;-65
2023/03/05 12:34:56;;;;;;;;;;;18.10;42.90;;;;;;702170;28;1241;-66
2023/03/05 12:35:21;;;;;;;;;;;18.10;42.80;;;;;;701659;28;1446;-65
2023/03/05 12:35:42;;;;;;;;;;;18.10;42.70;;;;;;699050;28;1277;-66
2023/03/05 12:36:28;;;;;;;;;;;18.10;42.70;;;;;;701736;28;1264;-66
2023/03/05 12:36:49;;;;;;;;;;;18.10;42.50;;;;;;694697;28;1242;-66
2023/03/05 12:37:22;;;;;;;;;;;18.10;42.60;;;;;;700113;28;1238;-67
2023/03/05 12:37:42;;;;;;;;;;;18.20;42.60;;;;;;699132;28;1257;-67
2023/03/05 12:38:05;;;;;;;;;;;18.20;42.60;;;;;;701503;28;1241;-66
2023/03/05 12:38:30;;;;;;;;;;;18.20;42.60;;;;;;699563;28;1296;-66
2023/03/05 12:38:51;;;;;;;;;;;18.20;42.50;;;;;;704468;28;1243;-66
2023/03/05 12:39:30;;;;;;;;;;;18.30;42.50;;;;;;704513;28;1244;-66
2023/03/05 12:39:54;;;;;;;;;;;18.20;42.40;;;;;;703076;28;1304;-66
2023/03/05 12:40:14;;;;;;;;;;;18.30;42.40;;;;;;704638;28;1224;-66
2023/03/05 12:40:35;;;;;;;;;;;18.30;42.30;;;;;;704687;28;900;-66
2023/03/05 12:41:14;;;;;;;;;;;18.30;42.40;;;;;;704823;28;835;-66
2023/03/05 12:41:35;;;;;;;;;;;18.30;42.40;;;;;;704830;28;840;-66
2023/03/05 12:41:56;;;;;;;;;;;18.30;42.30;;;;;;704382;28;1588;-66
2023/03/05 12:42:29;;;;;;;;;;;18.40;42.30;;;;;;704560;28;1256;-66
2023/03/05 12:42:59;;;;;;;;;;;18.40;42.30;;;;;;702641;28;1241;-66
2023/03/05 12:43:32;;;;;;;;;;;18.40;42.30;;;;;;704504;28;1430;-66
2023/03/05 12:44:04;;;;;;;;;;;18.40;43.50;;;;;;703048;28;1225;-66
2023/03/05 12:44:25;;;;;;;;;;;18.50;42.30;;;;;;701686;28;1376;-66
2023/03/05 12:45:06;;;;;;;;;;;18.50;42.30;;;;;;704575;28;1236;-66
2023/03/05 12:45:27;;;;;;;;;;;18.50;42.40;;;;;;702174;28;1245;-66
2023/03/05 12:45:51;;;;;;;;;;;18.50;42.30;;;;;;704514;28;1240;-66
2023/03/05 12:46:24;;;;;;;;;;;18.50;42.30;;;;;;704545;28;1236;-66
2023/03/05 12:47:05;;;;;;;;;;;18.60;42.30;;;;;;699126;28;1765;-66
2023/03/05 12:47:25;;;;;;;;;;;18.60;42.30;;;;;;699172;28;820;-66
2023/03/05 12:47:47;;;;;;;;;;;18.60;42.40;;;;;;696359;28;1505;-66
2023/03/05 12:48:11;;;;;;;;;;;18.60;42.30;;;;;;696383;28;879;-66
2023/03/05 12:48:31;;;;;;;;;;;18.60;42.10;;;;;;697086;28;923;-66
2023/03/05 12:48:52;;;;;;;;;;;18.70;42.10;;;;;;699198;28;863;-66
2023/03/05 12:49:26;;;;;;;;;;;18.70;42.00;;;;;;699055;28;855;-65
2023/03/05 12:49:47;;;;;;;;;;;18.60;42.00;;;;;;702996;28;1408;-66
2023/03/05 12:50:28;;;;;;;;;;;18.70;42.60;;;;;;701815;28;1118;-67
2023/03/05 12:50:51;;;;;;;;;;;18.70;45.40;;;;;;698600;28;1242;-65
2023/03/05 12:51:12;;;;;;;;;;;18.80;42.90;;;;;;701083;28;1285;-65
2023/03/05 12:51:37;;;;;;;;;;;18.80;42.50;;;;;;704310;28;1323;-65
2023/03/05 12:52:00;;;;;;;;;;;18.80;42.50;;;;;;702167;28;1269;-67
2023/03/05 12:52:22;;;;;;;;;;;18.80;42.30;;;;;;704547;28;1229;-65
2023/03/05 12:52:44;;;;;;;;;;;18.80;42.10;;;;;;704499;28;1240;-66
2023/03/05 12:53:08;;;;;;;;;;;18.80;42.30;;;;;;704477;28;1975;-65
2023/03/05 12:53:28;;;;;;;;;;;18.80;42.50;;;;;;704461;28;1283;-65
2023/03/05 12:53:50;;;;;;;;;;;18.80;42.30;;;;;;704438;28;1247;-67
2023/03/05 12:54:17;;;;;;;;;;;18.80;42.30;;;;;;704336;28;1559;-67
2023/03/05 12:54:41;;;;;;;;;;;18.90;42.20;;;;;;702346;28;1246;-67
2023/03/05 12:55:12;;;;;;;;;;;18.80;42.10;;;;;;704478;28;1331;-67
2023/03/05 12:55:44;;;;;;;;;;;18.80;42.10;;;;;;704557;28;1400;-66
2023/03/05 12:56:19;;;;;;;;;;;18.80;42.00;;;;;;706564;27;1273;-66
2023/03/05 12:56:43;;;;;;;;;;;18.90;42.20;;;;;;711461;27;1221;-66
2023/03/05 12:57:13;;;;;;;;;;;18.90;42.20;;;;;;711815;27;1187;-65
2023/03/05 12:57:34;;;;;;;;;;;18.90;42.30;;;;;;710527;27;1220;-67
2023/03/05 12:58:09;;;;;;;;;;;18.90;42.40;;;;;;713048;27;1290;-67
2023/03/05 12:58:43;;;;;;;;;;;18.90;42.40;;;;;;709794;27;1371;-65
2023/03/05 12:59:04;;;;;;;;;;;18.90;42.20;;;;;;708575;27;1296;-67
2023/03/05 12:59:40;;;;;;;;;;;18.90;42.20;;;;;;710328;27;1267;-65
2023/03/05 13:00:09;;;;;;;;;;;18.90;42.10;;;;;;708558;27;1245;-65
2023/03/05 13:00:38;;;;;;;;;;;18.90;43.30;;;;;;712923;27;1204;-66
2023/03/05 13:01:03;;;;;;;;;;;18.90;42.20;;;;;;711273;27;1200;-68
2023/03/05 13:01:23;;;;;;;;;;;18.90;42.30;;;;;;711884;27;1207;-67
2023/03/05 13:01:51;;;;;;;;;;;18.90;42.30;;;;;;711977;27;1180;-68
2023/03/05 13:02:30;;;;;;;;;;;18.90;42.20;;;;;;710690;27;1378;-67
2023/03/05 13:02:54;;;;;;;;;;;19.00;42.10;;;;;;712965;27;1204;-67
2023/03/05 13:03:20;;;;;;;;;;;19.00;42.10;;;;;;713680;27;850;-69
2023/03/05 13:03:55;;;;;;;;;;;19.00;43.00;;;;;;713624;27;819;-69
2023/03/05 13:04:18;;;;;;;;;;;19.00;42.40;;;;;;710330;27;1311;-70
2023/03/05 13:04:42;;;;;;;;;;;19.00;42.00;;;;;;708590;27;851;-69
2023/03/05 13:05:07;;;;;;;;;;;19.10;42.00;;;;;;705538;28;1560;-70
2023/03/05 13:05:32;;;;;;;;;;;19.10;41.80;;;;;;705780;28;942;-69
2023/03/05 13:05:55;;;;;;;;;;;19.10;41.70;;;;;;705636;28;1234;-69
2023/03/05 13:06:29;;;;;;;;;;;19.10;41.60;;;;;;708524;27;859;-69
2023/03/05 13:06:57;;;;;;;;;;;19.10;41.70;;;;;;708603;27;846;-71
2023/03/05 13:07:21;;;;;;;;;;;19.10;41.50;;;;;;705638;28;927;-70
2023/03/05 13:07:41;;;;;;;;;;;19.10;41.50;;;;;;706766;27;1056;-70
2023/03/05 13:08:11;;;;;;;;;;;19.10;41.50;;;;;;706277;27;1386;-70
2023/03/05 13:08:34;;;;;;;;;;;19.20;41.50;;;;;;702824;28;1303;-70
2023/03/05 13:09:15;;;;;;;;;;;19.20;42.20;;;;;;702866;28;895;-69
2023/03/05 13:09:36;;;;;;;;;;;19.20;41.90;;;;;;704981;28;1202;-71
2023/03/05 13:09:59;;;;;;;;;;;19.20;41.50;;;;;;706978;27;1284;-70
2023/03/05 13:10:24;;;;;;;;;;;19.30;41.50;;;;;;704470;28;1213;-70
2023/03/05 13:10:52;;;;;;;;;;;19.30;41.40;;;;;;708020;27;1291;-70
2023/03/05 13:11:17;;;;;;;;;;;19.30;41.30;;;;;;706392;27;1354;-68
2023/03/05 13:11:38;;;;;;;;;;;19.30;41.30;;;;;;707792;27;1665;-69
2023/03/05 13:11:58;;;;;;;;;;;19.40;41.20;;;;;;705926;27;1319;-70
2023/03/05 13:12:19;;;;;;;;;;;19.40;41.20;;;;;;707335;27;1437;-70
2023/03/05 13:12:48;;;;;;;;;;;19.40;41.20;;;;;;706231;27;1213;-69
2023/03/05 13:13:13;;;;;;;;;;;19.40;41.10;;;;;;706350;27;1910;-69
2023/03/05 13:13:36;;;;;;;;;;;19.40;41.10;;;;;;708150;27;1216;-69
2023/03/05 13:13:57;;;;;;;;;;;19.40;41.10;;;;;;705286;28;1189;-69
2023/03/05 13:14:26;;;;;;;;;;;19.40;41.10;;;;;;708793;27;1335;-70
2023/03/05 13:14:54;;;;;;;;;;;19.40;41.10;;;;;;711532;27;883;-68
2023/03/05 13:15:28;;;;;;;;;;;19.40;41.10;;;;;;711661;27;815;-70
2023/03/05 13:15:49;;;;;;;;;;;19.50;41.10;;;;;;711561;27;885;-69
2023/03/05 13:16:21;;;;;;;;;;;19.50;41.40;;;;;;711641;27;833;-69
2023/03/05 13:16:42;;;;;;;;;;;19.50;41.30;;;;;;711652;27;1001;-69
2023/03/05 13:17:22;;;;;;;;;;;19.50;41.00;;;;;;711688;27;985;-69
2023/03/05 13:17:56;;;;;;;;;;;19.50;40.90;;;;;;711528;27;1306;-68
2023/03/05 13:18:20;;;;;;;;;;;19.60;41.10;;;;;;711578;27;843;-67
2023/03/05 13:18:44;;;;;;;;;;;19.60;41.00;;;;;;708496;27;1358;-67
2023/03/05 13:19:13;;;;;;;;;;;19.60;41.00;;;;;;708447;27;927;-70
2023/03/05 13:19:34;;;;;;;;;;;19.60;41.20;;;;;;708593;27;958;-69
2023/03/05 13:19:56;;;;;;;;;;;19.60;41.10;;;;;;708499;27;914;-70
2023/03/05 13:20:22;;;;;;;;;;;19.60;41.00;;;;;;705547;28;906;-69
2023/03/05 13:20:43;;;;;;;;;;;19.60;41.00;;;;;;708493;27;819;-69
2023/03/05 13:21:05;;;;;;;;;;;19.60;40.90;;;;;;708581;27;807;-68
2023/03/05 13:21:28;;;;;;;;;;;19.60;40.90;;;;;;708179;27;1084;-69
2023/03/05 13:22:01;;;;;;;;;;;19.60;40.80;;;;;;708535;27;799;-68
2023/03/05 13:22:23;;;;;;;;;;;19.60;40.70;;;;;;711580;27;926;-70
2023/03/05 13:22:44;;;;;;;;;;;19.70;40.80;;;;;;702664;28;954;-70
2023/03/05 13:23:17;;;;;;;;;;;19.70;40.80;;;;;;702766;28;1014;-69
2023/03/05 13:23:44;;;;;;;;;;;19.70;40.80;;;;;;702777;28;851;-69
2023/03/05 13:24:14;;;;;;;;;;;19.70;40.60;;;;;;702872;28;792;-69
2023/03/05 13:24:34;;;;;;;;;;;19.70;40.80;;;;;;702811;28;808;-70
2023/03/05 13:25:15;;;;;;;;;;;19.70;40.90;;;;;;702803;28;982;-69
2023/03/05 13:25:36;;;;;;;;;;;19.80;40.90;;;;;;702867;28;788;-70
2023/03/05 13:25:59;;;;;;;;;;;19.80;40.70;;;;;;702762;28;1002;-70
2023/03/05 13:26:20;;;;;;;;;;;19.80;40.70;;;;;;702657;28;860;-71
2023/03/05 13:26:40;;;;;;;;;;;19.90;40.80;;;;;;702788;28;895;-70
2023/03/05 13:27:01;;;;;;;;;;;19.90;40.70;;;;;;702795;28;733;-70
2023/03/05 13:27:29;;;;;;;;;;;19.90;40.60;;;;;;702786;28;875;-69
2023/03/05 13:27:49;;;;;;;;;;;19.90;40.50;;;;;;702747;28;871;-69
2023/03/05 13:28:11;;;;;;;;;;;20.00;40.40;;;;;;702844;28;816;-70
2023/03/05 13:28:32;;;;;;;;;;;20.00;40.40;;;;;;702689;28;827;-67
